createdAt,value
2022-08-09T00:02:19.245Z,3.42
2022-08-09T00:06:36.903Z,3.42
2022-08-09T00:10:54.993Z,3.13
2022-08-09T00:15:15.442Z,3.58
2022-08-09T00:19:33.947Z,3.05
2022-08-09T00:23:55.775Z,3.38
2022-08-09T00:28:16.584Z,4.03
2022-08-09T00:32:34.809Z,3.17
2022-08-09T00:36:52.182Z,3.38
2022-08-09T00:41:09.470Z,3.40
2022-08-09T00:45:50.405Z,3.85
2022-08-09T00:50:14.519Z,3.85
2022-08-09T00:54:36.504Z,3.55
2022-08-09T00:58:54.297Z,3.80
2022-08-09T01:03:16.727Z,3.78
2022-08-09T01:08:00.862Z,3.83
2022-08-09T01:12:45.459Z,4.20
2022-08-09T01:17:11.000Z,4.50
2022-08-09T01:21:51.299Z,4.38
2022-08-09T01:26:37.025Z,3.92
2022-08-09T01:30:58.971Z,4.40
2022-08-09T01:35:38.096Z,4.53
2022-08-09T01:39:58.520Z,4.10
2022-08-09T01:44:20.328Z,4.22
2022-08-09T01:48:39.771Z,4.10
2022-08-09T01:53:00.195Z,4.10
2022-08-09T01:57:39.954Z,4.47
2022-08-09T02:02:03.855Z,4.63
2022-08-09T02:06:54.215Z,4.13
2022-08-09T02:11:17.626Z,4.55
2022-08-09T02:15:49.516Z,3.80
2022-08-09T02:20:08.181Z,4.60
2022-08-09T02:24:35.563Z,4.47
2022-08-09T02:28:57.386Z,4.35
2022-08-09T02:33:38.371Z,4.78
2022-08-09T02:38:04.882Z,4.30
2022-08-09T02:42:31.012Z,4.65
2022-08-09T02:46:52.280Z,4.18
2022-08-09T02:51:13.071Z,4.43
2022-08-09T02:55:46.735Z,5.10
2022-08-09T03:00:25.667Z,4.60
2022-08-09T03:04:44.062Z,4.88
2022-08-09T03:09:03.773Z,5.00
2022-08-09T03:13:22.487Z,4.50
2022-08-09T03:17:40.405Z,4.88
2022-08-09T03:21:58.373Z,4.87
2022-08-09T03:26:17.237Z,5.03
2022-08-09T03:30:36.665Z,4.93
2022-08-09T03:34:55.885Z,5.03
2022-08-09T03:39:15.223Z,5.28
2022-08-09T03:43:33.773Z,4.88
2022-08-09T03:47:53.705Z,4.65
2022-08-09T03:52:13.000Z,5.47
2022-08-09T03:56:31.206Z,5.65
2022-08-09T04:00:49.550Z,5.00
2022-08-09T04:05:27.843Z,5.35
2022-08-09T04:09:50.206Z,5.68
2022-08-09T04:14:37.742Z,5.10
2022-08-09T04:18:51.185Z,5.30
2022-08-09T04:23:09.709Z,5.60
2022-08-09T04:27:27.539Z,5.38
2022-08-09T04:36:05.749Z,5.70
2022-08-09T04:40:44.547Z,4.65
2022-08-09T04:45:05.052Z,5.10
2022-08-09T04:53:59.341Z,4.80
2022-08-09T04:58:16.542Z,4.85
2022-08-09T05:02:34.011Z,5.10
2022-08-09T05:06:51.427Z,5.00
2022-08-09T05:11:08.773Z,5.07
2022-08-09T05:15:39.183Z,4.65
2022-08-09T05:20:05.890Z,5.13
2022-08-09T05:24:24.637Z,4.95
2022-08-09T05:28:41.968Z,4.75
2022-08-09T05:33:00.657Z,4.72
2022-08-09T05:37:19.386Z,4.70
2022-08-09T05:41:36.853Z,4.65
2022-08-09T05:45:57.178Z,5.00
2022-08-09T05:50:32.319Z,4.70
2022-08-09T05:54:52.383Z,4.68
2022-08-09T05:59:10.553Z,4.70
2022-08-09T06:03:34.883Z,4.50
2022-08-09T06:08:05.198Z,3.88
2022-08-09T06:12:26.377Z,4.60
2022-08-09T06:16:43.989Z,4.03
2022-08-09T06:21:10.334Z,4.13
2022-08-09T06:25:28.471Z,3.88
2022-08-09T06:29:48.178Z,3.80
2022-08-09T06:34:15.964Z,3.50
2022-08-09T06:38:37.726Z,3.43
2022-08-09T06:42:55.232Z,3.67
2022-08-09T06:47:13.200Z,3.75
2022-08-09T06:55:57.115Z,3.65
2022-08-09T07:00:57.181Z,3.22
2022-08-09T07:04:52.463Z,3.08
2022-08-09T07:09:53.696Z,3.10
2022-08-09T07:14:05.263Z,3.08
2022-08-09T07:18:23.452Z,3.20
2022-08-09T07:22:49.606Z,2.63
2022-08-09T07:27:27.360Z,2.50
2022-08-09T07:31:48.655Z,2.55
2022-08-09T07:36:06.177Z,2.90
2022-08-09T07:40:37.374Z,2.80
2022-08-09T07:45:14.968Z,2.90
2022-08-09T07:50:04.403Z,2.45
2022-08-09T07:54:19.153Z,2.38
2022-08-09T07:58:47.275Z,2.28
2022-08-09T08:03:08.063Z,2.40
2022-08-09T08:08:44.576Z,2.30
2022-08-09T08:12:08.899Z,2.50
2022-08-09T08:16:40.336Z,2.10
2022-08-09T08:21:17.885Z,2.30
2022-08-09T08:25:44.546Z,2.10
2022-08-09T08:34:25.471Z,1.92
2022-08-09T08:38:42.935Z,2.35
2022-08-09T08:43:13.165Z,2.08
2022-08-09T08:47:31.274Z,2.50
2022-08-09T08:52:01.830Z,2.15
2022-08-09T08:56:25.101Z,2.25
2022-08-09T09:00:45.659Z,1.65
2022-08-09T09:05:14.328Z,1.90
2022-08-09T09:09:58.668Z,1.70
2022-08-09T09:14:23.517Z,1.70
2022-08-09T09:18:45.842Z,1.67
2022-08-09T09:23:06.079Z,2.10
2022-08-09T09:28:06.930Z,2.27
2022-08-09T09:32:14.774Z,2.15
2022-08-09T09:36:47.052Z,1.85
2022-08-09T09:41:27.960Z,1.95
2022-08-09T09:46:38.886Z,2.00
2022-08-09T09:50:49.758Z,2.03
2022-08-09T09:55:23.734Z,2.13
2022-08-09T09:59:52.138Z,1.80
2022-08-09T10:04:22.840Z,2.03
2022-08-09T10:08:57.217Z,2.25
2022-08-09T10:13:24.659Z,2.00
2022-08-09T10:17:56.050Z,2.17
2022-08-09T10:22:13.772Z,2.00
2022-08-09T10:26:33.074Z,1.95
2022-08-09T10:35:27.652Z,1.80
2022-08-09T10:39:49.419Z,1.98
2022-08-09T10:44:07.619Z,2.05
2022-08-09T10:48:38.105Z,1.90
2022-08-09T10:53:11.388Z,1.85
2022-08-09T10:57:37.547Z,2.33
2022-08-09T11:03:14.668Z,1.88
2022-08-09T11:06:33.341Z,2.00
2022-08-09T11:10:59.006Z,2.08
2022-08-09T11:15:34.173Z,2.00
2022-08-09T11:20:23.137Z,1.83
2022-08-09T11:25:02.288Z,2.10
2022-08-09T11:30:04.945Z,1.77
2022-08-09T11:34:43.004Z,1.92
2022-08-09T11:39:02.139Z,2.10
2022-08-09T11:43:25.232Z,2.08
2022-08-09T11:47:49.221Z,1.80
2022-08-09T11:53:04.204Z,1.80
2022-08-09T11:56:47.994Z,1.77
2022-08-09T12:01:15.590Z,1.90
2022-08-09T12:05:47.413Z,2.00
2022-08-09T12:10:05.347Z,1.90
2022-08-09T12:14:40.510Z,2.00
2022-08-09T12:19:13.067Z,1.73
2022-08-09T12:23:56.366Z,1.90
2022-08-09T12:29:13.569Z,2.35
2022-08-09T12:33:02.211Z,2.00
2022-08-09T12:37:31.402Z,1.92
2022-08-09T12:41:49.663Z,1.83
2022-08-09T12:46:07.937Z,1.83
2022-08-09T12:50:26.116Z,1.50
2022-08-09T12:56:12.653Z,1.80
2022-08-09T12:59:57.757Z,1.70
2022-08-09T13:08:59.213Z,1.80
2022-08-09T13:14:12.001Z,1.70
2022-08-09T13:18:17.296Z,1.95
2022-08-09T13:23:02.047Z,1.58
2022-08-09T13:27:39.975Z,1.58
2022-08-09T13:32:19.458Z,1.95
2022-08-09T13:36:43.542Z,1.80
2022-08-09T13:41:54.257Z,2.00
2022-08-09T13:46:42.760Z,1.80
2022-08-09T13:50:30.396Z,1.70
2022-08-09T13:55:00.139Z,1.40
2022-08-09T13:59:19.356Z,1.80
2022-08-09T14:04:05.033Z,1.75
2022-08-09T14:08:20.813Z,1.63
2022-08-09T14:12:38.470Z,2.05
2022-08-09T14:16:58.841Z,1.95
2022-08-09T14:21:20.436Z,1.90
2022-08-09T14:25:42.922Z,1.65
2022-08-09T14:30:18.934Z,1.83
2022-08-09T14:34:40.917Z,1.80
2022-08-09T14:38:58.663Z,1.70
2022-08-09T14:43:18.725Z,1.90
2022-08-09T14:47:44.908Z,1.90
2022-08-09T14:52:06.775Z,1.80
2022-08-09T14:56:26.920Z,1.58
2022-08-09T15:00:48.231Z,2.08
2022-08-09T15:05:10.408Z,2.20
2022-08-09T15:10:03.855Z,1.80
2022-08-09T15:14:04.969Z,1.70
2022-08-09T15:18:30.752Z,1.90
2022-08-09T15:22:48.171Z,2.33
2022-08-09T15:27:17.767Z,2.05
2022-08-09T15:31:41.430Z,1.70
2022-08-09T15:36:01.870Z,2.03
2022-08-09T15:40:22.262Z,1.90
2022-08-09T15:44:42.594Z,1.88
2022-08-09T15:49:20.640Z,1.95
2022-08-09T15:54:06.946Z,1.80
2022-08-09T15:58:26.478Z,2.08
2022-08-09T16:02:53.474Z,1.90
2022-08-09T16:07:11.887Z,1.80
2022-08-09T16:11:30.861Z,1.90
2022-08-09T16:16:06.145Z,2.20
2022-08-09T16:20:30.211Z,2.00
2022-08-09T16:24:47.693Z,1.95
2022-08-09T16:29:15.803Z,2.03
2022-08-09T16:33:38.910Z,1.80
2022-08-09T16:37:56.937Z,1.92
2022-08-09T16:42:16.617Z,2.10
2022-08-09T16:46:55.532Z,2.20
2022-08-09T16:51:19.453Z,2.15
2022-08-09T16:55:57.862Z,2.50
2022-08-09T17:00:15.531Z,2.20
2022-08-09T17:04:32.721Z,1.88
2022-08-09T17:09:02.871Z,2.20
2022-08-09T17:13:27.667Z,2.20
2022-08-09T17:17:51.641Z,2.00
2022-08-09T17:22:24.650Z,2.75
2022-08-09T17:26:53.419Z,2.40
2022-08-09T17:31:10.972Z,2.17
2022-08-09T17:35:34.982Z,2.20
2022-08-09T17:39:55.396Z,1.90
2022-08-09T17:44:42.487Z,2.42
2022-08-09T17:48:52.621Z,2.70
2022-08-09T17:53:19.657Z,1.90
2022-08-09T17:58:03.466Z,2.50
2022-08-09T18:02:19.736Z,2.42
2022-08-09T18:06:54.399Z,2.17
2022-08-09T18:11:16.385Z,2.30
2022-08-09T18:16:05.421Z,2.33
2022-08-09T18:20:56.289Z,2.17
2022-08-09T18:24:48.532Z,2.20
2022-08-09T18:30:42.690Z,2.30
2022-08-09T18:33:53.128Z,2.22
2022-08-09T18:38:11.738Z,2.45
2022-08-09T18:42:29.790Z,2.30
2022-08-09T18:47:05.182Z,2.50
2022-08-09T18:51:38.535Z,2.17
2022-08-09T18:56:05.591Z,2.40
2022-08-09T19:00:23.366Z,2.47
2022-08-09T19:04:40.698Z,2.92
2022-08-09T19:09:06.149Z,3.10
2022-08-09T19:13:49.629Z,2.70
2022-08-09T19:18:02.267Z,2.60
2022-08-09T19:22:22.746Z,2.45
2022-08-09T19:26:41.154Z,2.90
2022-08-09T19:31:07.751Z,2.92
2022-08-09T19:35:26.800Z,2.90
2022-08-09T19:44:22.286Z,3.30
2022-08-09T19:49:00.535Z,3.35
2022-08-09T19:53:17.930Z,3.10
2022-08-09T19:57:45.770Z,3.95
2022-08-09T20:02:17.336Z,3.40
2022-08-09T20:06:49.257Z,3.40
2022-08-09T20:11:08.927Z,3.50
2022-08-09T20:16:38.149Z,3.22
2022-08-09T20:20:08.796Z,4.22
2022-08-09T20:24:34.079Z,4.00
2022-08-09T20:28:53.948Z,4.30
2022-08-09T20:33:13.633Z,4.28
2022-08-09T20:38:21.595Z,3.97
2022-08-09T20:42:18.870Z,3.72
2022-08-09T20:46:44.555Z,3.85
2022-08-09T20:51:03.197Z,3.60
2022-08-09T21:00:19.994Z,3.55
2022-08-09T21:05:55.290Z,3.40
2022-08-09T21:09:03.361Z,4.03
2022-08-09T21:13:21.518Z,3.47
2022-08-09T21:18:23.587Z,3.60
2022-08-09T21:22:35.729Z,3.60
2022-08-09T21:26:54.579Z,4.15
2022-08-09T21:31:16.781Z,3.90
2022-08-09T21:35:40.596Z,3.97
2022-08-09T21:39:58.517Z,3.50
2022-08-09T21:44:34.673Z,3.58
2022-08-09T21:48:53.668Z,3.50
2022-08-09T21:53:15.690Z,4.10
2022-08-09T21:57:59.107Z,3.67
2022-08-09T22:02:19.545Z,3.70
2022-08-09T22:06:59.022Z,3.88
2022-08-09T22:12:09.042Z,4.07
2022-08-09T22:15:56.319Z,4.00
2022-08-09T22:20:21.718Z,3.75
2022-08-09T22:24:53.528Z,3.60
2022-08-09T22:29:28.455Z,4.22
2022-08-09T22:33:55.322Z,4.35
2022-08-09T22:38:14.723Z,4.38
2022-08-09T22:42:32.066Z,4.63
2022-08-09T22:48:13.132Z,3.75
2022-08-09T22:51:29.292Z,4.50
2022-08-09T22:56:29.777Z,4.30
2022-08-09T23:00:23.727Z,4.25
2022-08-09T23:04:53.911Z,4.80
2022-08-09T23:09:11.496Z,4.60
2022-08-09T23:13:28.744Z,4.03
2022-08-09T23:17:45.930Z,4.47
2022-08-09T23:22:03.159Z,4.45
2022-08-09T23:26:20.479Z,4.45
2022-08-09T23:30:37.677Z,4.95
2022-08-09T23:34:54.885Z,4.28
2022-08-09T23:39:12.125Z,5.03
2022-08-09T23:43:29.307Z,5.45
2022-08-09T23:47:46.502Z,4.50
2022-08-09T23:52:03.955Z,4.88
2022-08-09T23:56:52.665Z,4.80
